Portada
METAR-TAF:

METAR-TAF

Aeroports :

Navegantes, Santa Catarina, Brasil

latitud: 26-52-43S, longitud: 048-39-03W, altitud: 5 m

Observació

L'informe es va fer fa 6 minuts, a les 22:00 UTC
Vent 7 kt del Sud/Sud-Est
Temperatura 16°C
Humitat 82%
Pressió 1027 hPa
Visibilitat 10 km o més
Escasses núvols a una alçada de 2000 ft

METAR: SBNF 242200Z 16007KT 9999 FEW020 16/13 Q1027

Hora: 19:06 (22:06 UTC)

Pronòstic

L'informe es va fer fa 12 hores i 21 minuts, a les 09:45 UTC
Pronòstic vàlid del 24 a les 18 UTC al 25 a les 18 UTC
Vent 10 kt del Sud/Sud-Est
Visibilitat 10 km o més
Núvols disperses a una alçada de 3000 ft
Evolucionant progressivament
l' 25 a les 02 UTC al 25 a les 04 UTC
Vent 5 kt del Oest/Sud-Oest
Probabilitat 40%
l' 25 a les 06 UTC al 25 a les 12 UTC
Visibilitat: 4000 m
Cel ennuvolat a una alçada de 800 ft
boira en bancs, boirina

TAF: SBNF 240945Z 2418/2518 16010KT 9999 SCT030 TX19/2418Z TN12/2509Z BECMG 2502/2504 25005KT PROB40 2506/2512 4000 BCFG BR BKN008 RMK PEB

Observacions i pronòstics meteorològics de més de 4000 aeroports (METAR i TAF).

Les estacions disponibles són els punts grocs i vermells al mapa.

Posi el ratolí al punt desitjat per veure el nom de l'estació.

Feu clic per veure les observacions i els pronòstics meteorològics.

Per canviar el mapa: feu clic els botons verds amb una creu de color negre per apropar; al botó verd amb un guió per allunyar la imatge; o en les fletxes verdes per a mapes adjacents.


METAR-TAF: